createdAt,value
2023-02-14T00:01:20.765Z,6.90
2023-02-14T00:03:49.358Z,6.90
2023-02-14T00:06:17.210Z,6.80
2023-02-14T00:08:45.188Z,6.80
2023-02-14T00:11:14.096Z,6.80
2023-02-14T00:14:02.342Z,6.80
2023-02-14T00:16:29.638Z,6.70
2023-02-14T00:19:03.785Z,6.70
2023-02-14T00:21:35.897Z,6.70
2023-02-14T00:24:09.090Z,6.70
2023-02-14T00:26:38.930Z,6.60
2023-02-14T00:29:08.079Z,6.60
2023-02-14T00:31:35.954Z,6.60
2023-02-14T00:34:04.411Z,6.50
2023-02-14T00:36:32.847Z,6.50
2023-02-14T00:39:02.034Z,6.50
2023-02-14T00:41:29.618Z,6.50
2023-02-14T00:43:56.988Z,6.50
2023-02-14T00:46:25.207Z,6.50
2023-02-14T00:48:52.868Z,6.60
2023-02-14T00:51:21.171Z,6.60
2023-02-14T00:53:51.555Z,6.60
2023-02-14T00:56:20.305Z,6.60
2023-02-14T00:58:47.691Z,6.60
2023-02-14T01:01:19.358Z,6.60
2023-02-14T01:03:47.426Z,6.60
2023-02-14T01:06:15.368Z,6.60
2023-02-14T01:08:42.798Z,6.60
2023-02-14T01:11:16.303Z,6.60
2023-02-14T01:13:44.227Z,6.60
2023-02-14T01:16:14.708Z,6.60
2023-02-14T01:18:43.149Z,6.50
2023-02-14T01:21:23.066Z,6.50
2023-02-14T01:23:53.260Z,6.50
2023-02-14T01:26:22.006Z,6.60
2023-02-14T01:28:50.917Z,6.60
2023-02-14T01:31:27.417Z,6.60
2023-02-14T01:33:58.653Z,6.60
2023-02-14T01:36:36.817Z,6.60
2023-02-14T01:39:07.765Z,6.60
2023-02-14T01:41:36.661Z,6.60
2023-02-14T01:44:06.939Z,6.60
2023-02-14T01:46:37.070Z,6.60
2023-02-14T01:49:34.032Z,6.60
2023-02-14T01:52:14.955Z,6.60
2023-02-14T01:55:04.532Z,6.60
2023-02-14T01:57:41.102Z,6.60
2023-02-14T02:00:29.307Z,6.60
2023-02-14T02:02:59.111Z,6.60
2023-02-14T02:05:27.503Z,6.70
2023-02-14T02:07:57.773Z,6.70
2023-02-14T02:10:28.672Z,6.70
2023-02-14T02:12:56.557Z,6.70
2023-02-14T02:15:27.368Z,6.60
2023-02-14T02:18:34.385Z,6.70
2023-02-14T02:21:41.362Z,6.70
2023-02-14T02:24:28.772Z,6.70
2023-02-14T02:27:26.035Z,6.70
2023-02-14T02:30:29.739Z,6.70
2023-02-14T02:33:36.814Z,6.70
2023-02-14T02:36:33.235Z,6.70
2023-02-14T02:39:40.175Z,6.70
2023-02-14T02:42:42.799Z,6.60
2023-02-14T02:45:32.844Z,6.60
2023-02-14T02:48:15.619Z,6.60
2023-02-14T02:51:09.445Z,6.70
2023-02-14T02:54:00.534Z,6.70
2023-02-14T02:56:52.443Z,6.60
2023-02-14T02:59:26.060Z,6.70
2023-02-14T03:02:55.714Z,6.70
2023-02-14T03:05:23.889Z,6.70
2023-02-14T03:07:51.839Z,6.80
2023-02-14T03:10:25.753Z,6.70
2023-02-14T03:13:34.063Z,6.70
2023-02-14T03:16:32.592Z,6.70
2023-02-14T03:19:38.174Z,6.70
2023-02-14T03:22:45.288Z,6.70
2023-02-14T03:25:43.850Z,6.70
2023-02-14T03:28:35.683Z,6.60
2023-02-14T03:31:25.297Z,6.60
2023-02-14T03:34:17.613Z,6.60
2023-02-14T03:36:52.972Z,6.60
2023-02-14T03:39:30.807Z,6.60
2023-02-14T03:42:06.198Z,6.60
2023-02-14T03:44:36.269Z,6.60
2023-02-14T03:47:14.722Z,6.60
2023-02-14T03:49:46.856Z,6.60
2023-02-14T03:52:15.815Z,6.60
2023-02-14T03:54:45.604Z,6.60
2023-02-14T03:57:23.977Z,6.60
2023-02-14T03:59:51.833Z,6.60
2023-02-14T04:02:42.934Z,6.60
2023-02-14T04:05:16.652Z,6.70
2023-02-14T04:07:47.122Z,6.70
2023-02-14T04:10:15.565Z,6.80
2023-02-14T04:12:42.942Z,6.80
2023-02-14T04:15:11.281Z,6.80
2023-02-14T04:17:58.482Z,6.80
2023-02-14T04:20:26.806Z,6.80
2023-02-14T04:22:54.505Z,6.70
2023-02-14T04:25:22.783Z,6.70
2023-02-14T04:27:49.983Z,6.60
2023-02-14T04:30:18.511Z,6.60
2023-02-14T04:32:45.871Z,6.60
2023-02-14T04:35:13.161Z,6.50
2023-02-14T04:37:40.364Z,6.50
2023-02-14T04:40:08.373Z,6.50
2023-02-14T04:42:35.675Z,6.40
2023-02-14T04:45:04.434Z,6.30
2023-02-14T04:47:31.734Z,6.30
2023-02-14T04:49:59.166Z,6.30
2023-02-14T04:52:26.401Z,6.30
2023-02-14T04:54:53.861Z,6.30
2023-02-14T04:57:21.589Z,6.30
2023-02-14T04:59:48.754Z,6.20
2023-02-14T05:02:16.001Z,6.20
2023-02-14T05:04:43.339Z,6.20
2023-02-14T05:07:10.689Z,6.20
2023-02-14T05:09:37.930Z,6.30
2023-02-14T05:12:05.324Z,6.20
2023-02-14T05:14:32.477Z,6.20
2023-02-14T05:16:59.641Z,6.20
2023-02-14T05:19:26.902Z,6.20
2023-02-14T05:21:54.250Z,6.20
2023-02-14T05:24:21.407Z,6.20
2023-02-14T05:26:48.649Z,6.20
2023-02-14T05:29:15.811Z,6.20
2023-02-14T05:31:43.133Z,6.10
2023-02-14T05:34:10.454Z,6.10
2023-02-14T05:36:37.728Z,6.10
2023-02-14T05:39:05.259Z,6.10
2023-02-14T05:41:32.556Z,6.10
2023-02-14T05:43:59.686Z,6.10
2023-02-14T05:46:26.961Z,6.10
2023-02-14T05:48:54.161Z,6.10
2023-02-14T05:51:21.318Z,6.00
2023-02-14T05:53:48.391Z,6.00
2023-02-14T05:56:15.670Z,6.00
2023-02-14T05:58:43.521Z,6.00
2023-02-14T06:01:10.761Z,6.00
2023-02-14T06:03:37.951Z,6.00
2023-02-14T06:06:05.373Z,6.00
2023-02-14T06:08:32.475Z,6.00
2023-02-14T06:11:00.084Z,6.00
2023-02-14T06:13:27.530Z,6.00
2023-02-14T06:15:54.843Z,6.00
2023-02-14T06:18:22.064Z,5.90
2023-02-14T06:20:49.213Z,5.90
2023-02-14T06:23:16.307Z,5.90
2023-02-14T06:25:43.497Z,5.90
2023-02-14T06:28:10.606Z,5.90
2023-02-14T06:30:38.045Z,5.90
2023-02-14T06:33:05.289Z,5.90
2023-02-14T06:35:32.495Z,5.80
2023-02-14T06:37:59.653Z,5.80
2023-02-14T06:40:26.877Z,5.80
2023-02-14T06:42:54.066Z,5.70
2023-02-14T06:45:21.253Z,5.70
2023-02-14T06:47:48.425Z,5.70
2023-02-14T06:50:15.641Z,5.70
2023-02-14T06:52:44.559Z,5.60
2023-02-14T06:55:13.298Z,5.60
2023-02-14T06:57:40.778Z,5.60
2023-02-14T07:00:10.159Z,5.60
2023-02-14T07:02:37.513Z,5.60
2023-02-14T07:05:05.044Z,5.50
2023-02-14T07:07:32.157Z,5.50
2023-02-14T07:09:59.444Z,5.50
2023-02-14T07:12:26.573Z,5.50
2023-02-14T07:14:53.845Z,5.50
2023-02-14T07:17:20.973Z,5.40
2023-02-14T07:19:48.206Z,5.50
2023-02-14T07:22:15.424Z,5.40
2023-02-14T07:24:42.757Z,5.40
2023-02-14T07:27:09.896Z,5.50
2023-02-14T07:29:37.563Z,5.40
2023-02-14T07:32:05.060Z,5.40
2023-02-14T07:34:33.143Z,5.40
2023-02-14T07:37:01.739Z,5.40
2023-02-14T07:39:28.964Z,5.40
2023-02-14T07:41:56.182Z,5.40
2023-02-14T07:44:27.053Z,5.50
2023-02-14T07:46:54.307Z,5.50
2023-02-14T07:49:21.948Z,5.60
2023-02-14T07:51:49.243Z,5.60
2023-02-14T07:54:16.355Z,5.60
2023-02-14T07:56:43.621Z,5.70
2023-02-14T07:59:10.885Z,5.70
2023-02-14T08:01:38.152Z,5.70
2023-02-14T08:04:05.563Z,5.80
2023-02-14T08:06:32.808Z,5.80
2023-02-14T08:09:00.124Z,5.90
2023-02-14T08:11:47.422Z,5.90
2023-02-14T08:14:14.711Z,5.90
2023-02-14T08:16:41.926Z,6.10
2023-02-14T08:19:09.164Z,6.10
2023-02-14T08:21:36.319Z,6.20
2023-02-14T08:24:03.639Z,6.30
2023-02-14T08:26:31.829Z,6.40
2023-02-14T08:28:59.037Z,6.50
2023-02-14T08:31:35.771Z,6.60
2023-02-14T08:34:05.036Z,6.80
2023-02-14T08:36:32.931Z,6.90
2023-02-14T08:39:00.247Z,7.10
2023-02-14T08:41:27.681Z,7.30
2023-02-14T08:43:54.897Z,7.50
2023-02-14T08:46:22.295Z,7.80
2023-02-14T08:48:54.442Z,8.00
2023-02-14T08:51:22.933Z,8.30
2023-02-14T08:53:52.010Z,8.50
2023-02-14T08:56:21.222Z,8.80
2023-02-14T08:58:51.707Z,9.00
2023-02-14T09:01:19.310Z,9.30
2023-02-14T09:03:46.668Z,9.50
2023-02-14T09:06:17.515Z,9.70
2023-02-14T09:08:46.892Z,10.00
2023-02-14T09:11:18.863Z,10.30
2023-02-14T09:13:46.618Z,10.50
2023-02-14T09:16:17.363Z,10.80
2023-02-14T09:18:45.068Z,10.90
2023-02-14T09:21:14.840Z,11.00
2023-02-14T09:23:42.715Z,11.10
2023-02-14T09:26:12.128Z,11.20
2023-02-14T09:28:40.587Z,11.50
2023-02-14T09:31:32.355Z,11.40
2023-02-14T09:33:59.666Z,11.60
2023-02-14T09:36:46.786Z,11.50
2023-02-14T09:39:14.022Z,11.60
2023-02-14T09:42:13.350Z,11.80
2023-02-14T09:44:45.599Z,11.90
2023-02-14T09:47:36.568Z,11.90
2023-02-14T09:50:11.512Z,12.10
2023-02-14T09:52:38.897Z,12.40
2023-02-14T09:55:14.108Z,12.60
2023-02-14T09:58:03.658Z,12.60
2023-02-14T10:00:48.861Z,12.90
2023-02-14T10:03:44.912Z,13.00
2023-02-14T10:06:45.242Z,13.00
2023-02-14T10:09:39.518Z,13.20
2023-02-14T10:12:20.978Z,13.60
2023-02-14T10:14:49.818Z,13.80
2023-02-14T10:17:41.882Z,13.80
2023-02-14T10:20:22.357Z,13.60
2023-02-14T10:23:17.867Z,13.70
2023-02-14T10:25:52.534Z,13.80
2023-02-14T10:28:26.876Z,13.80
2023-02-14T10:31:19.650Z,14.10
2023-02-14T10:34:00.906Z,14.20
2023-02-14T10:36:55.576Z,14.30
2023-02-14T10:39:47.590Z,14.30
2023-02-14T10:42:47.467Z,14.20
2023-02-14T10:45:32.455Z,14.40
2023-02-14T10:48:39.667Z,14.40
2023-02-14T10:51:38.050Z,14.40
2023-02-14T10:54:21.520Z,14.30
2023-02-14T10:57:28.477Z,14.40
2023-02-14T11:00:08.651Z,14.60
2023-02-14T11:02:43.176Z,14.80
2023-02-14T11:05:30.243Z,14.60
2023-02-14T11:07:59.290Z,14.70
2023-02-14T11:10:31.685Z,14.60
2023-02-14T11:12:58.979Z,14.80
2023-02-14T11:15:36.170Z,14.90
2023-02-14T11:18:24.811Z,14.90
2023-02-14T11:21:14.837Z,14.70
2023-02-14T11:23:45.070Z,14.90
2023-02-14T11:26:26.649Z,15.00
2023-02-14T11:29:03.679Z,14.90
2023-02-14T11:31:38.092Z,15.00
2023-02-14T11:34:21.859Z,15.20
2023-02-14T11:36:49.219Z,15.30
2023-02-14T11:39:31.895Z,15.20
2023-02-14T11:42:04.432Z,15.20
2023-02-14T11:44:34.278Z,15.30
2023-02-14T11:47:29.065Z,15.50
2023-02-14T11:50:02.310Z,15.50
2023-02-14T11:52:30.841Z,15.70
2023-02-14T11:54:59.288Z,15.80
2023-02-14T11:57:38.005Z,15.80
2023-02-14T12:00:17.443Z,15.90
2023-02-14T12:02:50.009Z,16.00
2023-02-14T12:05:28.155Z,15.90
2023-02-14T12:07:59.131Z,15.60
2023-02-14T12:10:35.700Z,15.50
2023-02-14T12:13:25.805Z,15.30
2023-02-14T12:15:55.569Z,15.10
2023-02-14T12:18:46.434Z,15.20
2023-02-14T12:21:49.183Z,15.40
2023-02-14T12:24:37.504Z,15.50
2023-02-14T12:27:26.932Z,15.70
2023-02-14T12:30:12.109Z,15.70
2023-02-14T12:32:46.929Z,15.70
2023-02-14T12:35:17.938Z,15.50
2023-02-14T12:38:24.870Z,15.20
2023-02-14T12:41:29.047Z,14.90
2023-02-14T12:44:23.130Z,14.60
2023-02-14T12:47:18.802Z,14.40
2023-02-14T12:50:25.727Z,14.30
2023-02-14T12:53:32.804Z,14.20
2023-02-14T12:56:16.303Z,14.30
2023-02-14T12:58:59.591Z,14.30
2023-02-14T13:02:05.329Z,14.30
2023-02-14T13:04:59.814Z,14.40
2023-02-14T13:08:06.811Z,14.70
2023-02-14T13:10:57.894Z,15.00
2023-02-14T13:13:57.193Z,15.10
2023-02-14T13:16:41.100Z,15.30
2023-02-14T13:19:48.079Z,15.60
2023-02-14T13:22:20.840Z,15.60
2023-02-14T13:24:52.042Z,15.70
2023-02-14T13:27:23.626Z,15.70
2023-02-14T13:29:58.030Z,15.70
2023-02-14T13:32:30.618Z,15.80
2023-02-14T13:34:58.946Z,15.90
2023-02-14T13:37:28.219Z,16.00
2023-02-14T13:39:59.193Z,16.00
2023-02-14T13:42:53.801Z,16.00
2023-02-14T13:45:55.896Z,16.00
2023-02-14T13:48:27.493Z,15.90
2023-02-14T13:51:04.769Z,15.90
2023-02-14T13:53:52.830Z,15.90
2023-02-14T13:56:35.425Z,15.90
2023-02-14T13:59:06.338Z,15.90
2023-02-14T14:01:50.284Z,15.90
2023-02-14T14:04:37.387Z,15.80
2023-02-14T14:07:27.262Z,15.80
2023-02-14T14:09:57.993Z,15.90
2023-02-14T14:12:41.812Z,15.90
2023-02-14T14:15:15.058Z,15.80
2023-02-14T14:17:46.936Z,15.80
2023-02-14T14:20:42.558Z,15.80
2023-02-14T14:23:31.575Z,15.80
2023-02-14T14:26:00.115Z,15.80
2023-02-14T14:28:30.975Z,15.80
2023-02-14T14:30:58.374Z,15.90
2023-02-14T14:33:34.125Z,15.90
2023-02-14T14:36:08.287Z,16.00
2023-02-14T14:38:47.304Z,16.00
2023-02-14T14:41:14.637Z,16.10
2023-02-14T14:43:42.157Z,16.00
2023-02-14T14:46:12.592Z,16.00
2023-02-14T14:48:45.597Z,16.00
2023-02-14T14:51:34.829Z,16.00
2023-02-14T14:54:15.749Z,16.00
2023-02-14T14:56:51.992Z,16.20
2023-02-14T14:59:40.048Z,16.20
2023-02-14T15:02:30.041Z,16.30
2023-02-14T15:04:57.309Z,16.20
2023-02-14T15:07:35.079Z,16.20
2023-02-14T15:10:03.341Z,16.20
2023-02-14T15:12:50.544Z,16.10
2023-02-14T15:15:19.134Z,16.10
2023-02-14T15:17:46.988Z,16.00
2023-02-14T15:20:21.366Z,15.90
2023-02-14T15:22:50.926Z,15.80
2023-02-14T15:25:25.798Z,15.70
2023-02-14T15:27:53.272Z,15.70
2023-02-14T15:30:34.442Z,15.80
2023-02-14T15:33:07.324Z,15.80
2023-02-14T15:35:39.033Z,15.80
2023-02-14T15:38:07.491Z,15.80
2023-02-14T15:40:35.826Z,15.70
2023-02-14T15:43:16.630Z,15.70
2023-02-14T15:45:46.546Z,15.70
2023-02-14T15:48:19.729Z,15.60
2023-02-14T15:50:53.173Z,15.60
2023-02-14T15:53:33.809Z,15.60
2023-02-14T15:56:26.140Z,15.50
2023-02-14T15:59:20.748Z,15.50
2023-02-14T16:02:00.691Z,15.50
2023-02-14T16:04:30.853Z,15.50
2023-02-14T16:07:23.107Z,15.50
2023-02-14T16:09:51.826Z,15.50
2023-02-14T16:12:31.728Z,15.40
2023-02-14T16:15:09.585Z,15.40
2023-02-14T16:17:36.844Z,15.30
2023-02-14T16:20:40.414Z,15.30
2023-02-14T16:23:28.969Z,15.20
2023-02-14T16:25:57.702Z,15.10
2023-02-14T16:28:29.952Z,15.00
2023-02-14T16:30:59.053Z,15.00
2023-02-14T16:33:30.163Z,14.90
2023-02-14T16:36:18.045Z,14.90
2023-02-14T16:38:46.261Z,14.80
2023-02-14T16:41:17.634Z,14.70
2023-02-14T16:43:45.476Z,14.60
2023-02-14T16:46:16.270Z,14.60
2023-02-14T16:48:45.905Z,14.60
2023-02-14T16:51:14.388Z,14.50
2023-02-14T16:53:42.898Z,14.40
2023-02-14T16:56:20.295Z,14.30
2023-02-14T16:58:48.119Z,14.20
2023-02-14T17:01:15.444Z,14.10
2023-02-14T17:03:43.556Z,14.00
2023-02-14T17:06:16.035Z,14.00
2023-02-14T17:08:45.476Z,13.90
2023-02-14T17:11:12.765Z,13.80
2023-02-14T17:13:44.577Z,13.60
2023-02-14T17:16:15.981Z,13.50
2023-02-14T17:18:47.873Z,13.40
2023-02-14T17:21:16.888Z,13.30
2023-02-14T17:23:44.019Z,13.20
2023-02-14T17:26:11.427Z,13.10
2023-02-14T17:28:38.688Z,13.00
2023-02-14T17:31:06.658Z,12.90
2023-02-14T17:33:34.807Z,12.90
2023-02-14T17:36:11.798Z,12.80
2023-02-14T17:38:40.056Z,12.70
2023-02-14T17:41:16.656Z,12.50
2023-02-14T17:43:44.172Z,12.40
2023-02-14T17:46:11.766Z,12.30
2023-02-14T17:48:39.076Z,12.20
2023-02-14T17:51:08.347Z,12.10
2023-02-14T17:53:36.558Z,11.90
2023-02-14T17:56:10.883Z,11.90
2023-02-14T17:58:38.791Z,11.80
2023-02-14T18:01:08.404Z,11.70
2023-02-14T18:03:36.083Z,11.60
2023-02-14T18:06:04.391Z,11.60
2023-02-14T18:08:35.440Z,11.50
2023-02-14T18:11:07.503Z,11.40
2023-02-14T18:13:34.812Z,11.30
2023-02-14T18:16:04.828Z,11.10
2023-02-14T18:18:32.534Z,11.10
2023-02-14T18:21:02.644Z,11.00
2023-02-14T18:23:32.701Z,11.00
2023-02-14T18:26:04.629Z,10.90
2023-02-14T18:28:33.786Z,10.90
2023-02-14T18:31:09.963Z,10.90
2023-02-14T18:33:37.775Z,10.90
2023-02-14T18:36:15.126Z,10.80
2023-02-14T18:38:44.740Z,10.80
2023-02-14T18:41:15.808Z,10.70
2023-02-14T18:43:43.605Z,10.60
2023-02-14T18:46:13.357Z,10.60
2023-02-14T18:48:41.099Z,10.50
2023-02-14T18:51:10.133Z,10.50
2023-02-14T18:53:39.272Z,10.60
2023-02-14T18:56:08.565Z,10.50
2023-02-14T18:58:36.469Z,10.50
2023-02-14T19:01:25.445Z,10.50
2023-02-14T19:03:54.624Z,10.50
2023-02-14T19:06:23.492Z,10.50
2023-02-14T19:08:51.350Z,10.50
2023-02-14T19:11:23.442Z,10.60
2023-02-14T19:13:55.911Z,10.50
2023-02-14T19:16:29.355Z,10.40
2023-02-14T19:18:56.692Z,10.40
2023-02-14T19:21:30.759Z,10.30
2023-02-14T19:23:58.579Z,10.20
2023-02-14T19:26:29.490Z,10.20
2023-02-14T19:29:02.327Z,10.10
2023-02-14T19:31:30.838Z,10.00
2023-02-14T19:33:58.043Z,10.00
2023-02-14T19:36:25.319Z,10.00
2023-02-14T19:38:53.489Z,10.00
2023-02-14T19:41:31.193Z,9.90
2023-02-14T19:44:00.761Z,9.90
2023-02-14T19:46:29.190Z,9.90
2023-02-14T19:48:57.621Z,9.80
2023-02-14T19:51:29.079Z,9.80
2023-02-14T19:53:58.475Z,9.80
2023-02-14T19:56:29.414Z,9.80
2023-02-14T19:58:57.027Z,9.70
2023-02-14T20:01:46.425Z,9.70
2023-02-14T20:04:17.673Z,9.60
2023-02-14T20:06:46.726Z,9.60
2023-02-14T20:09:15.283Z,9.50
2023-02-14T20:11:51.261Z,9.30
2023-02-14T20:14:24.387Z,9.10
2023-02-14T20:16:53.219Z,9.00
2023-02-14T20:19:23.238Z,8.90
2023-02-14T20:21:51.182Z,8.80
2023-02-14T20:24:21.726Z,8.80
2023-02-14T20:26:50.468Z,8.80
2023-02-14T20:29:18.794Z,8.70
2023-02-14T20:31:49.284Z,8.70
2023-02-14T20:34:17.448Z,8.70
2023-02-14T20:36:49.766Z,8.70
2023-02-14T20:39:17.135Z,8.70
2023-02-14T20:41:49.880Z,8.70
2023-02-14T20:44:21.857Z,8.70
2023-02-14T20:46:51.842Z,8.70
2023-02-14T20:49:20.585Z,8.70
2023-02-14T20:51:52.175Z,8.70
2023-02-14T20:54:22.316Z,8.70
2023-02-14T20:56:51.012Z,8.70
2023-02-14T20:59:38.258Z,8.80
2023-02-14T21:02:05.456Z,8.80
2023-02-14T21:04:32.597Z,8.80
2023-02-14T21:07:04.178Z,8.90
2023-02-14T21:09:33.061Z,8.90
2023-02-14T21:12:00.197Z,8.90
2023-02-14T21:14:27.519Z,8.90
2023-02-14T21:16:54.593Z,8.90
2023-02-14T21:19:22.285Z,9.00
2023-02-14T21:21:49.618Z,8.90
2023-02-14T21:24:17.000Z,8.90
2023-02-14T21:26:45.179Z,8.80
2023-02-14T21:29:12.545Z,8.80
2023-02-14T21:31:40.081Z,8.80
2023-02-14T21:34:07.372Z,8.80
2023-02-14T21:36:38.158Z,8.80
2023-02-14T21:39:06.509Z,8.80
2023-02-14T21:41:35.436Z,8.90
2023-02-14T21:44:04.513Z,8.90
2023-02-14T21:46:36.058Z,8.80
2023-02-14T21:49:25.219Z,8.80
2023-02-14T21:51:52.580Z,8.90
2023-02-14T21:54:19.767Z,8.90
2023-02-14T21:56:47.233Z,8.90
2023-02-14T21:59:14.368Z,8.90
2023-02-14T22:01:42.718Z,8.90
2023-02-14T22:04:12.340Z,8.90
2023-02-14T22:06:41.173Z,9.00
2023-02-14T22:09:09.629Z,9.00
2023-02-14T22:11:36.999Z,9.00
2023-02-14T22:14:04.632Z,9.00
2023-02-14T22:16:32.132Z,9.00
2023-02-14T22:18:59.334Z,9.00
2023-02-14T22:21:27.902Z,9.00
2023-02-14T22:23:55.873Z,9.10
2023-02-14T22:26:25.959Z,9.00
2023-02-14T22:28:59.322Z,9.00
2023-02-14T22:31:28.697Z,9.10
2023-02-14T22:33:56.207Z,9.10
2023-02-14T22:36:23.604Z,9.10
2023-02-14T22:38:50.812Z,9.10
2023-02-14T22:41:20.802Z,9.10
2023-02-14T22:43:48.781Z,9.10
2023-02-14T22:46:19.879Z,9.10
2023-02-14T22:48:48.474Z,9.10
2023-02-14T22:51:30.456Z,9.10
2023-02-14T22:54:00.788Z,9.10
2023-02-14T22:56:31.261Z,9.10
2023-02-14T22:59:02.438Z,9.10
2023-02-14T23:01:29.703Z,9.10
2023-02-14T23:03:58.298Z,9.10
2023-02-14T23:06:27.227Z,9.10
2023-02-14T23:08:55.309Z,9.10
2023-02-14T23:11:25.766Z,9.10
2023-02-14T23:14:12.839Z,9.20
2023-02-14T23:17:00.636Z,9.30
2023-02-14T23:19:54.815Z,9.40
2023-02-14T23:22:29.646Z,9.60
2023-02-14T23:24:59.185Z,9.70
2023-02-14T23:27:38.147Z,9.80
2023-02-14T23:30:09.720Z,9.90
2023-02-14T23:32:37.024Z,10.00
2023-02-14T23:35:04.466Z,10.00
2023-02-14T23:37:31.680Z,10.00
2023-02-14T23:39:58.823Z,10.00
2023-02-14T23:42:26.151Z,10.10
2023-02-14T23:44:53.228Z,10.10
2023-02-14T23:47:20.489Z,10.10
2023-02-14T23:49:47.629Z,10.10
2023-02-14T23:52:14.912Z,10.00
2023-02-14T23:54:42.143Z,10.00
2023-02-14T23:57:09.894Z,10.00
2023-02-14T23:59:37.082Z,9.90
